»·PEaware :: N862UP KLAX-KSAN

N862UP :: KLAX-KSAN

FLIGHT INFORMATION

Flight Status: Arrived
Operator: Privately registered:
United States
More flights under this callsign
Pilot: Jonathan B. (27965)
Aircraft: BEECH AIRCRAFT SUPER KING AIR 350
(B350)
More flights by this aircraft type
Origin: KLAX Los Angeles Intl
United States
Destination: KSAN San Diego Intl-Lindbergh
United States
More flights between these airports :: More routes between these airports
Route: +KLAX ALBAS KSAN
File this flight plan on PilotEdge
Remarks:
Altitude:
(Current/Filed)
1,000ft
Speed:
(Current/Filed)
240kts
Departed: 12-Feb-20 09:29 PM
Arrived: 12-Feb-20 10:14 PM
Distance/Time
Traveled:
95nm/0:45
Distance/Time
To Go:
Arrived

Flight Plot

Page will automatically refresh every two minutes.

Flight plan parsing failed; only flown route is shown


Map Options




Map Legend


Flown Route
Filed Route
Departure Airport
Arrival Airport
Navaid (VOR, NDB)
Fix

Horizontal Profiles

Position Reports

Time Latitude Longitude Heading Altitude Ground
Speed
12-Feb-20 20:51 33.933757 -118.394711 88 106ft 0kts
12-Feb-20 20:52 33.933757 -118.394711 88 106ft 0kts
12-Feb-20 20:53 33.933757 -118.394711 92 106ft 0kts
12-Feb-20 20:54 33.933757 -118.394711 92 106ft 0kts
12-Feb-20 20:55 33.933757 -118.394711 92 106ft 0kts
12-Feb-20 20:55 33.933757 -118.394711 92 106ft 0kts
12-Feb-20 20:57 33.933757 -118.394711 92 106ft 0kts
12-Feb-20 20:58 33.933757 -118.394711 92 106ft 0kts
12-Feb-20 20:58 33.933757 -118.394711 92 106ft 0kts
12-Feb-20 20:59 33.933757 -118.394711 92 106ft 0kts
12-Feb-20 21:01 33.933757 -118.394711 92 106ft 0kts
12-Feb-20 21:01 33.933757 -118.394711 92 106ft 0kts
12-Feb-20 21:02 33.933757 -118.394711 92 106ft 0kts
12-Feb-20 21:03 33.933757 -118.394711 92 106ft 0kts
12-Feb-20 21:04 33.933757 -118.394711 92 106ft 0kts
12-Feb-20 21:05 33.933757 -118.394711 92 106ft 0kts
12-Feb-20 21:06 33.933757 -118.394711 92 106ft 0kts
12-Feb-20 21:07 33.933757 -118.394711 92 106ft 0kts
12-Feb-20 21:08 33.933757 -118.394711 92 106ft 0kts
12-Feb-20 21:09 33.934303 -118.393855 359 104ft 7kts
12-Feb-20 21:10 33.934582 -118.393913 356 104ft 0kts
12-Feb-20 21:11 33.934582 -118.393913 356 104ft 0kts
12-Feb-20 21:12 33.934582 -118.393913 356 104ft 0kts
12-Feb-20 21:13 33.934917 -118.394643 261 106ft 1kts
12-Feb-20 21:14 33.934703 -118.396696 263 108ft 8kts
12-Feb-20 21:15 33.934696 -118.396723 83 108ft 12kts
12-Feb-20 21:16 33.935052 -118.393247 82 103ft 10kts
12-Feb-20 21:17 33.935328 -118.390615 83 103ft 7kts
12-Feb-20 21:18 33.935605 -118.387860 83 100ft 8kts
12-Feb-20 21:19 33.935883 -118.385093 83 100ft 10kts
12-Feb-20 21:20 33.936433 -118.382825 4 97ft 0kts
12-Feb-20 21:21 33.936433 -118.382825 4 97ft 0kts
12-Feb-20 21:22 33.936433 -118.382825 4 97ft 0kts
12-Feb-20 21:23 33.936433 -118.382825 4 97ft 0kts
12-Feb-20 21:24 33.936433 -118.382825 4 97ft 0kts
12-Feb-20 21:25 33.936433 -118.382825 4 97ft 0kts
12-Feb-20 21:26 33.936433 -118.382825 4 97ft 0kts
12-Feb-20 21:27 33.936474 -118.382824 358 97ft 3kts
12-Feb-20 21:28 33.936209 -118.394707 263 239ft 111kts
12-Feb-20 21:29 33.933913 -118.445653 266 2237ft 138kts
12-Feb-20 21:30 33.926549 -118.495757 262 3150ft 182kts
12-Feb-20 21:31 33.919691 -118.561181 262 2990ft 202kts
12-Feb-20 21:32 33.911959 -118.629368 262 2978ft 207kts
12-Feb-20 21:33 33.904268 -118.697610 261 2971ft 208kts
12-Feb-20 21:34 33.896461 -118.766764 262 2977ft 208kts
12-Feb-20 21:35 33.853725 -118.772748 142 2987ft 206kts
12-Feb-20 21:36 33.808135 -118.730118 142 2970ft 207kts
12-Feb-20 21:37 33.763041 -118.687874 142 2975ft 205kts
12-Feb-20 21:38 33.717887 -118.645596 142 2972ft 204kts
12-Feb-20 21:39 33.673064 -118.603638 142 3026ft 202kts
12-Feb-20 21:40 33.631706 -118.564762 142 3830ft 177kts
12-Feb-20 21:41 33.594606 -118.529611 142 4766ft 161kts
12-Feb-20 21:42 33.560801 -118.498618 142 5790ft 145kts
12-Feb-20 21:43 33.529294 -118.470458 142 6849ft 138kts
12-Feb-20 21:44 33.494363 -118.439329 142 8102ft 177kts
12-Feb-20 21:45 33.451802 -118.401228 142 9276ft 201kts
12-Feb-20 21:46 33.405183 -118.359328 142 10000ft 228kts
12-Feb-20 21:47 33.352542 -118.311820 142 9985ft 249kts
12-Feb-20 21:48 33.344483 -118.242563 61 9995ft 241kts
12-Feb-20 21:49 33.373978 -118.170849 61 9982ft 239kts
12-Feb-20 21:50 33.403522 -118.099135 61 9982ft 239kts
12-Feb-20 21:51 33.432952 -118.027555 64 9979ft 240kts
12-Feb-20 21:52 33.421223 -117.948602 102 9983ft 245kts
12-Feb-20 21:53 33.393604 -117.876044 141 10015ft 245kts
12-Feb-20 21:54 33.339692 -117.823848 139 9863ft 262kts
12-Feb-20 21:55 33.281904 -117.765675 139 9984ft 279kts
12-Feb-20 21:56 33.222431 -117.705765 139 9983ft 282kts
12-Feb-20 21:57 33.162049 -117.644892 139 9990ft 282kts
12-Feb-20 21:58 33.101935 -117.584258 139 9970ft 283kts
12-Feb-20 21:59 33.041833 -117.523607 139 9965ft 283kts
12-Feb-20 22:00 32.981732 -117.462922 139 9986ft 283kts
12-Feb-20 22:01 32.921537 -117.402100 139 9991ft 283kts
12-Feb-20 22:02 32.861722 -117.341624 139 9994ft 283kts
12-Feb-20 22:03 32.804474 -117.283836 139 8598ft 255kts
12-Feb-20 22:04 32.756014 -117.227053 141 6860ft 237kts
12-Feb-20 22:05 32.697103 -117.208568 218 5295ft 213kts
12-Feb-20 22:06 32.687246 -117.265498 198 3696ft 206kts
12-Feb-20 22:07 32.683360 -117.230243 40 3321ft 154kts
12-Feb-20 22:08 32.714594 -117.200837 39 3078ft 140kts
12-Feb-20 22:09 32.751139 -117.193706 17 2839ft 142kts
12-Feb-20 22:10 32.752734 -117.202848 118 1479ft 133kts
12-Feb-20 22:11 32.740755 -117.165630 127 695ft 107kts
12-Feb-20 22:12 32.732331 -117.184712 287 16ft 69kts
12-Feb-20 22:13 32.733997 -117.188127 14 18ft 0kts
12-Feb-20 22:14 32.733997 -117.188127 14 18ft 0kts
12-Feb-20 22:15 32.733997 -117.188127 14 18ft 0kts
12-Feb-20 22:16 32.733925 -117.186340 106 18ft 6kts
12-Feb-20 22:17 32.733547 -117.184822 107 18ft 8kts
12-Feb-20 22:18 32.732700 -117.181361 104 17ft 11kts
12-Feb-20 22:19 32.732313 -117.179152 79 21ft 8kts
12-Feb-20 22:20 32.732476 -117.176589 80 23ft 0kts
12-Feb-20 22:21 32.732476 -117.176589 80 23ft 0kts
12-Feb-20 22:22 32.732476 -117.176589 80 23ft 0kts
12-Feb-20 22:23 32.732476 -117.176589 80 23ft 0kts
12-Feb-20 22:24 32.732476 -117.176589 80 23ft 0kts
12-Feb-20 22:25 32.732476 -117.176589 80 23ft 0kts
12-Feb-20 22:26 32.732476 -117.176589 80 23ft 0kts
12-Feb-20 22:27 32.732476 -117.176589 80 23ft 0kts

Navigation Log

Ident Type
Flight plan parsing failed, navigation log unavailable